Time;durP1;ratioP1;P1;durP2;ratioP2;P2;SDS_P1;SDS_P2;PMS_P1;PMS_P2;Temp;Humidity;BMP_temperature;BMP_pressure;BME280_temperature;BME280_humidity;BME280_pressure;Samples;Min_cycle;Max_cycle;Signal;HPM_P1;HPM_P2
2023/07/10 00:00:22;;;;;;;5.40;3.40;;;;;;;;;;5088597;28;20462;-79
2023/07/10 00:02:50;;;;;;;6.03;3.53;;;;;;;;;;5089840;28;20459;-79
2023/07/10 00:05:21;;;;;;;6.43;3.43;;;;;;;;;;5089616;28;20452;-78
2023/07/10 00:07:48;;;;;;;5.63;3.10;;;;;;;;;;5086256;28;20467;-79
2023/07/10 00:10:18;;;;;;;5.80;3.20;;;;;;;;;;5084115;28;20460;-78
2023/07/10 00:12:47;;;;;;;5.30;3.47;;;;;;;;;;5087053;28;20456;-79
2023/07/10 00:15:18;;;;;;;5.30;2.77;;;;;;;;;;5085559;28;20527;-77
2023/07/10 00:17:50;;;;;;;4.40;3.03;;;;;;;;;;5081560;28;20452;-79
2023/07/10 00:20:21;;;;;;;5.70;3.17;;;;;;;;;;5084633;28;20493;-78
2023/07/10 00:22:49;;;;;;;6.17;3.40;;;;;;;;;;5088232;28;20516;-78
2023/07/10 00:25:17;;;;;;;10.83;3.33;;;;;;;;;;5091015;28;20558;-79
2023/07/10 00:27:45;;;;;;;5.47;2.90;;;;;;;;;;5092115;28;20464;-78
2023/07/10 00:30:26;;;;;;;6.43;3.50;;;;;;;;;;5089267;28;20483;-78
2023/07/10 00:32:54;;;;;;;4.80;2.83;;;;;;;;;;5085470;28;20444;-78
2023/07/10 00:35:22;;;;;;;6.00;3.30;;;;;;;;;;5090095;28;20495;-78
2023/07/10 00:38:00;;;;;;;6.33;3.63;;;;;;;;;;5091301;28;20497;-77
2023/07/10 00:40:36;;;;;;;5.67;3.13;;;;;;;;;;5088546;28;20510;-77
2023/07/10 00:43:07;;;;;;;5.60;3.77;;;;;;;;;;5089173;28;20441;-78
2023/07/10 00:45:35;;;;;;;4.90;3.00;;;;;;;;;;5091546;28;20456;-80
2023/07/10 00:48:07;;;;;;;5.50;3.33;;;;;;;;;;5089723;28;20513;-81
2023/07/10 00:50:36;;;;;;;6.67;3.67;;;;;;;;;;5090150;28;20543;-78
2023/07/10 00:53:07;;;;;;;5.80;3.10;;;;;;;;;;5092197;28;20452;-78
2023/07/10 00:55:36;;;;;;;6.97;3.57;;;;;;;;;;5086665;28;20582;-79
2023/07/10 00:58:18;;;;;;;5.20;3.60;;;;;;;;;;5089465;28;20457;-77
2023/07/10 01:01:01;;;;;;;5.20;2.83;;;;;;;;;;5089079;28;20551;-78
2023/07/10 01:03:29;;;;;;;8.83;3.73;;;;;;;;;;5085221;28;20872;-79
2023/07/10 01:05:58;;;;;;;6.47;3.33;;;;;;;;;;5086236;28;20436;-78
2023/07/10 01:08:25;;;;;;;4.80;3.30;;;;;;;;;;5089928;28;20424;-79
2023/07/10 01:10:52;;;;;;;5.33;3.27;;;;;;;;;;5091549;28;20502;-78
2023/07/10 01:13:20;;;;;;;4.93;3.43;;;;;;;;;;5088438;28;20445;-79
2023/07/10 01:15:48;;;;;;;6.27;3.63;;;;;;;;;;5087745;28;20485;-79
2023/07/10 01:18:16;;;;;;;5.60;3.30;;;;;;;;;;5087511;28;20448;-78
2023/07/10 01:20:47;;;;;;;4.87;3.20;;;;;;;;;;5086812;28;20444;-78
2023/07/10 01:23:17;;;;;;;5.30;3.27;;;;;;;;;;5085356;28;20484;-80
2023/07/10 01:25:49;;;;;;;4.70;3.30;;;;;;;;;;5085689;28;20457;-78
2023/07/10 01:28:17;;;;;;;6.23;3.57;;;;;;;;;;5086456;28;20463;-79
2023/07/10 01:30:45;;;;;;;5.40;2.97;;;;;;;;;;5088436;28;20463;-80
2023/07/10 01:33:15;;;;;;;5.53;3.03;;;;;;;;;;5088219;28;20512;-78
2023/07/10 01:35:49;;;;;;;5.93;3.47;;;;;;;;;;5087617;28;20997;-78
2023/07/10 01:38:18;;;;;;;6.13;3.80;;;;;;;;;;5086607;28;20458;-78
2023/07/10 01:40:50;;;;;;;8.03;4.00;;;;;;;;;;5087972;28;20465;-79
2023/07/10 01:43:17;;;;;;;8.20;4.30;;;;;;;;;;5088502;28;20480;-79
2023/07/10 01:45:46;;;;;;;6.30;3.80;;;;;;;;;;5089840;28;20448;-77
2023/07/10 01:48:14;;;;;;;6.30;3.53;;;;;;;;;;5091456;28;20452;-78
2023/07/10 01:50:42;;;;;;;7.20;3.80;;;;;;;;;;5086238;28;20506;-77
2023/07/10 01:53:13;;;;;;;6.07;3.27;;;;;;;;;;5089442;28;20452;-78
2023/07/10 01:55:45;;;;;;;4.93;3.70;;;;;;;;;;5085762;28;20460;-81
2023/07/10 01:58:14;;;;;;;5.00;3.43;;;;;;;;;;5091633;28;20458;-79
2023/07/10 02:00:42;;;;;;;10.27;3.97;;;;;;;;;;5087622;28;20770;-77
2023/07/10 02:03:09;;;;;;;7.07;4.03;;;;;;;;;;5088868;28;20500;-78
2023/07/10 02:05:37;;;;;;;5.10;3.83;;;;;;;;;;5084084;28;20483;-80
2023/07/10 02:08:04;;;;;;;5.40;3.70;;;;;;;;;;5087905;28;20463;-78
2023/07/10 02:10:32;;;;;;;5.43;3.60;;;;;;;;;;5087343;28;20457;-78
2023/07/10 02:13:01;;;;;;;6.50;3.40;;;;;;;;;;5084339;28;20730;-79
2023/07/10 02:15:28;;;;;;;6.43;4.33;;;;;;;;;;5086035;28;20886;-80
2023/07/10 02:17:57;;;;;;;5.47;3.87;;;;;;;;;;5085001;28;20781;-78
2023/07/10 02:20:24;;;;;;;7.10;4.30;;;;;;;;;;5087404;28;20495;-79
2023/07/10 02:22:52;;;;;;;5.97;3.83;;;;;;;;;;5086125;28;20784;-78
2023/07/10 02:25:19;;;;;;;6.57;4.50;;;;;;;;;;5084240;28;20449;-78
2023/07/10 02:27:46;;;;;;;6.47;3.97;;;;;;;;;;5081599;28;20879;-79
2023/07/10 02:30:23;;;;;;;6.80;4.40;;;;;;;;;;5082775;28;20752;-79
2023/07/10 02:32:50;;;;;;;5.67;3.97;;;;;;;;;;5083481;28;20789;-79
2023/07/10 02:35:18;;;;;;;5.57;3.73;;;;;;;;;;5086215;28;20449;-79
2023/07/10 02:37:45;;;;;;;6.30;3.67;;;;;;;;;;5085117;28;20567;-78
2023/07/10 02:40:15;;;;;;;7.60;3.90;;;;;;;;;;5087011;28;20461;-78
2023/07/10 02:42:46;;;;;;;6.77;4.90;;;;;;;;;;5084679;28;20466;-80
2023/07/10 02:45:13;;;;;;;4.83;3.80;;;;;;;;;;5086507;28;20467;-79
2023/07/10 02:47:42;;;;;;;8.00;4.57;;;;;;;;;;5087020;28;20456;-78
2023/07/10 02:50:10;;;;;;;6.00;3.80;;;;;;;;;;5088164;28;20803;-80
2023/07/10 02:52:38;;;;;;;5.13;4.23;;;;;;;;;;5086253;28;20455;-79
2023/07/10 02:55:05;;;;;;;7.30;4.73;;;;;;;;;;5087101;28;20526;-79
2023/07/10 02:57:33;;;;;;;8.83;4.90;;;;;;;;;;5084724;28;20573;-80
2023/07/10 03:00:00;;;;;;;6.40;4.20;;;;;;;;;;5085906;28;20753;-79
2023/07/10 03:02:29;;;;;;;6.30;4.20;;;;;;;;;;5082453;28;20891;-79
2023/07/10 03:04:59;;;;;;;6.50;4.63;;;;;;;;;;5087068;28;20449;-78
2023/07/10 03:07:27;;;;;;;10.27;5.17;;;;;;;;;;5083915;28;20815;-80
2023/07/10 03:09:54;;;;;;;6.47;4.30;;;;;;;;;;5084007;28;20514;-79
2023/07/10 03:12:22;;;;;;;6.13;3.83;;;;;;;;;;5082749;28;20492;-79
2023/07/10 03:14:49;;;;;;;5.90;4.40;;;;;;;;;;5086589;28;20449;-79
2023/07/10 03:17:16;;;;;;;4.90;4.30;;;;;;;;;;5080660;28;20562;-79
2023/07/10 03:19:44;;;;;;;12.07;4.10;;;;;;;;;;5086364;28;20429;-80
2023/07/10 03:22:12;;;;;;;6.10;5.00;;;;;;;;;;5080325;28;20904;-79
2023/07/10 03:24:40;;;;;;;6.37;4.40;;;;;;;;;;5082272;28;20536;-78
2023/07/10 03:27:07;;;;;;;8.90;4.70;;;;;;;;;;5087018;28;20755;-76
2023/07/10 03:29:36;;;;;;;8.20;5.30;;;;;;;;;;5083326;28;20471;-77
2023/07/10 03:32:05;;;;;;;6.00;4.50;;;;;;;;;;5079561;28;20551;-78
2023/07/10 03:34:33;;;;;;;7.33;4.37;;;;;;;;;;5082737;28;20452;-77
2023/07/10 03:37:00;;;;;;;7.20;4.00;;;;;;;;;;5080831;28;20480;-79
2023/07/10 03:39:29;;;;;;;7.57;4.23;;;;;;;;;;5082216;28;20499;-79
2023/07/10 03:41:56;;;;;;;10.03;4.90;;;;;;;;;;5082961;28;20456;-79
2023/07/10 03:44:24;;;;;;;5.47;4.47;;;;;;;;;;5082070;28;20475;-79
2023/07/10 03:46:51;;;;;;;6.10;4.40;;;;;;;;;;5084498;28;20452;-80
2023/07/10 03:49:18;;;;;;;10.63;5.27;;;;;;;;;;5083313;28;20460;-79
2023/07/10 03:51:46;;;;;;;6.50;4.10;;;;;;;;;;5086226;28;20460;-77
2023/07/10 03:54:14;;;;;;;8.33;5.30;;;;;;;;;;5085616;28;20452;-79
2023/07/10 03:56:49;;;;;;;5.37;4.30;;;;;;;;;;5088391;28;20491;-78
2023/07/10 03:59:16;;;;;;;6.50;4.93;;;;;;;;;;5084163;28;20715;-79
2023/07/10 04:01:44;;;;;;;7.67;5.43;;;;;;;;;;5084231;28;20441;-80
2023/07/10 04:04:11;;;;;;;6.73;4.40;;;;;;;;;;5085694;28;20466;-78
2023/07/10 04:06:39;;;;;;;8.53;5.27;;;;;;;;;;5087434;28;20448;-79
2023/07/10 04:09:06;;;;;;;9.03;5.37;;;;;;;;;;5086587;28;20460;-78
2023/07/10 04:11:34;;;;;;;6.70;4.90;;;;;;;;;;5085417;28;20505;-78
2023/07/10 04:14:03;;;;;;;6.63;4.87;;;;;;;;;;5085294;28;20547;-78
2023/07/10 04:16:30;;;;;;;12.30;6.23;;;;;;;;;;5083094;28;20549;-79
2023/07/10 04:18:58;;;;;;;6.90;5.40;;;;;;;;;;5087060;28;20465;-77
2023/07/10 04:21:27;;;;;;;5.87;4.97;;;;;;;;;;5083023;28;20466;-79
2023/07/10 04:23:54;;;;;;;7.00;5.67;;;;;;;;;;5087603;28;20956;-79
2023/07/10 04:26:23;;;;;;;11.47;6.20;;;;;;;;;;5088053;28;20538;-78
2023/07/10 04:28:51;;;;;;;7.70;6.17;;;;;;;;;;5085631;28;20437;-78
2023/07/10 04:31:21;;;;;;;8.03;5.80;;;;;;;;;;5088687;28;20445;-79
2023/07/10 04:33:48;;;;;;;9.77;5.93;;;;;;;;;;5086281;28;20452;-78
2023/07/10 04:36:16;;;;;;;8.50;5.23;;;;;;;;;;5089260;28;20603;-79
2023/07/10 04:38:43;;;;;;;6.90;5.00;;;;;;;;;;5083468;28;20448;-79
2023/07/10 04:41:12;;;;;;;7.67;6.00;;;;;;;;;;5086268;28;20479;-79
2023/07/10 04:43:40;;;;;;;15.10;6.20;;;;;;;;;;5083754;28;20483;-79
2023/07/10 04:46:08;;;;;;;8.50;5.73;;;;;;;;;;5088352;28;20460;-80
2023/07/10 04:48:37;;;;;;;8.00;5.97;;;;;;;;;;5082763;28;20723;-80
2023/07/10 04:51:05;;;;;;;7.70;5.40;;;;;;;;;;5087144;28;20445;-80
2023/07/10 04:53:33;;;;;;;7.87;6.40;;;;;;;;;;5082407;28;20444;-78
2023/07/10 04:56:01;;;;;;;10.90;6.47;;;;;;;;;;5086111;28;20459;-79
2023/07/10 04:58:29;;;;;;;15.20;11.67;;;;;;;;;;5083183;28;20755;-79
2023/07/10 05:00:58;;;;;;;7.90;7.10;;;;;;;;;;5088363;28;20523;-78
2023/07/10 05:03:25;;;;;;;10.93;7.00;;;;;;;;;;5084369;28;20452;-79
2023/07/10 05:05:55;;;;;;;9.97;6.40;;;;;;;;;;5084896;28;20463;-78
2023/07/10 05:08:22;;;;;;;7.50;6.73;;;;;;;;;;5082008;28;20522;-80
2023/07/10 05:10:51;;;;;;;8.03;6.20;;;;;;;;;;5082272;28;20433;-79
2023/07/10 05:13:19;;;;;;;13.87;6.70;;;;;;;;;;5084221;28;20441;-80
2023/07/10 05:15:46;;;;;;;9.30;7.50;;;;;;;;;;5081900;28;20751;-79
2023/07/10 05:18:14;;;;;;;8.53;6.70;;;;;;;;;;5084262;28;20897;-79
2023/07/10 05:20:42;;;;;;;8.30;6.43;;;;;;;;;;5085112;28;20850;-78
2023/07/10 05:23:10;;;;;;;10.93;8.63;;;;;;;;;;5083883;28;20480;-80
2023/07/10 05:25:38;;;;;;;9.23;7.70;;;;;;;;;;5082059;28;20537;-78
2023/07/10 05:28:06;;;;;;;10.03;7.00;;;;;;;;;;5084671;28;20790;-79
2023/07/10 05:30:36;;;;;;;9.30;7.73;;;;;;;;;;5080739;28;20840;-80
2023/07/10 05:33:04;;;;;;;11.30;7.70;;;;;;;;;;5080294;28;21010;-78
2023/07/10 05:35:31;;;;;;;9.33;8.03;;;;;;;;;;5080237;28;20452;-79
2023/07/10 05:37:58;;;;;;;11.07;7.97;;;;;;;;;;5081041;28;20527;-79
2023/07/10 05:40:27;;;;;;;8.80;7.17;;;;;;;;;;5093857;28;20442;-79
2023/07/10 05:42:55;;;;;;;9.23;7.83;;;;;;;;;;5104443;28;20467;-79
2023/07/10 05:45:22;;;;;;;10.00;7.90;;;;;;;;;;5102741;28;20479;-79
2023/07/10 05:47:50;;;;;;;10.17;8.10;;;;;;;;;;5103351;28;20502;-79
2023/07/10 05:50:19;;;;;;;11.87;9.10;;;;;;;;;;5098694;28;20448;-78
2023/07/10 05:52:46;;;;;;;10.40;8.20;;;;;;;;;;5089114;28;20445;-78
2023/07/10 05:55:14;;;;;;;10.57;7.87;;;;;;;;;;5095455;28;20463;-78
2023/07/10 05:57:43;;;;;;;11.27;8.40;;;;;;;;;;5088329;28;20500;-78
2023/07/10 06:00:11;;;;;;;10.20;8.23;;;;;;;;;;5081141;28;20536;-79
2023/07/10 06:02:38;;;;;;;9.47;8.50;;;;;;;;;;5076941;28;20935;-79
2023/07/10 06:05:05;;;;;;;9.90;7.23;;;;;;;;;;5077466;28;20899;-79
2023/07/10 06:07:36;;;;;;;10.03;7.57;;;;;;;;;;5092220;28;20448;-79
2023/07/10 06:10:10;;;;;;;9.83;8.17;;;;;;;;;;5096365;28;20452;-79
2023/07/10 06:12:38;;;;;;;9.60;8.00;;;;;;;;;;5099527;28;20536;-80
2023/07/10 06:15:08;;;;;;;9.50;7.70;;;;;;;;;;5100234;28;20444;-80
2023/07/10 06:17:37;;;;;;;8.43;7.33;;;;;;;;;;5082427;28;20780;-79
2023/07/10 06:20:12;;;;;;;8.57;6.83;;;;;;;;;;5079462;28;20456;-80
2023/07/10 06:22:39;;;;;;;8.97;8.07;;;;;;;;;;5078758;28;21121;-78
2023/07/10 06:25:07;;;;;;;8.93;8.07;;;;;;;;;;5084715;28;20448;-79
2023/07/10 06:27:35;;;;;;;11.93;8.47;;;;;;;;;;5096311;28;20466;-78
2023/07/10 06:30:19;;;;;;;9.03;7.60;;;;;;;;;;5102384;28;20448;-80
2023/07/10 06:32:47;;;;;;;8.53;7.53;;;;;;;;;;5098905;28;20636;-79
2023/07/10 06:35:15;;;;;;;9.87;7.57;;;;;;;;;;5096996;28;20451;-78
2023/07/10 06:37:43;;;;;;;8.97;7.30;;;;;;;;;;5104866;28;20486;-79
2023/07/10 06:40:21;;;;;;;9.50;7.03;;;;;;;;;;5107549;28;20901;-79
2023/07/10 06:42:50;;;;;;;11.13;7.23;;;;;;;;;;5104687;28;20473;-78
2023/07/10 06:45:21;;;;;;;10.90;7.93;;;;;;;;;;5101116;28;20448;-81
2023/07/10 06:47:50;;;;;;;9.20;7.50;;;;;;;;;;5105004;28;20615;-79
2023/07/10 06:50:21;;;;;;;8.60;7.63;;;;;;;;;;5104420;28;20455;-79
2023/07/10 06:52:48;;;;;;;9.33;8.33;;;;;;;;;;5095552;28;20465;-77
2023/07/10 06:55:17;;;;;;;12.27;7.07;;;;;;;;;;5099168;28;20478;-77
2023/07/10 06:57:44;;;;;;;9.30;8.30;;;;;;;;;;5098150;28;20510;-79
2023/07/10 07:00:21;;;;;;;10.33;6.90;;;;;;;;;;5104986;28;20452;-78
2023/07/10 07:02:50;;;;;;;10.13;7.67;;;;;;;;;;5097440;28;20550;-80
2023/07/10 07:05:21;;;;;;;10.13;8.60;;;;;;;;;;5091018;28;20448;-78
2023/07/10 07:07:49;;;;;;;10.10;8.37;;;;;;;;;;5095777;28;20467;-78
2023/07/10 07:10:19;;;;;;;10.23;8.20;;;;;;;;;;5098860;28;20517;-80
2023/07/10 07:12:47;;;;;;;8.27;6.60;;;;;;;;;;5086718;28;21348;-78
2023/07/10 07:15:23;;;;;;;11.33;7.97;;;;;;;;;;5096088;28;20460;-79
2023/07/10 07:17:55;;;;;;;12.83;7.97;;;;;;;;;;5102186;28;20572;-80
2023/07/10 07:20:22;;;;;;;10.70;7.80;;;;;;;;;;5106125;28;20459;-80
2023/07/10 07:22:49;;;;;;;10.00;7.77;;;;;;;;;;5086514;28;20480;-80
2023/07/10 07:25:18;;;;;;;8.60;7.67;;;;;;;;;;5084286;28;20479;-80
2023/07/10 07:27:46;;;;;;;8.47;7.30;;;;;;;;;;5088417;28;20517;-78
2023/07/10 07:30:19;;;;;;;10.80;8.60;;;;;;;;;;5107917;28;20469;-79
2023/07/10 07:32:53;;;;;;;13.27;11.40;;;;;;;;;;5108025;28;20546;-78
2023/07/10 07:35:25;;;;;;;11.00;8.80;;;;;;;;;;5109045;28;21062;-78
2023/07/10 07:38:03;;;;;;;11.07;8.07;;;;;;;;;;5101631;28;20588;-78
2023/07/10 07:40:31;;;;;;;9.60;8.03;;;;;;;;;;5100817;28;20465;-78
2023/07/10 07:43:00;;;;;;;9.67;8.33;;;;;;;;;;5104744;28;20504;-77
2023/07/10 07:45:29;;;;;;;11.30;9.60;;;;;;;;;;5101345;28;20458;-78
2023/07/10 07:48:02;;;;;;;11.33;9.50;;;;;;;;;;5096988;28;20450;-78
2023/07/10 07:50:32;;;;;;;11.23;9.97;;;;;;;;;;5106111;28;20750;-78
2023/07/10 07:53:01;;;;;;;13.70;10.57;;;;;;;;;;5108971;28;20448;-79
2023/07/10 07:55:29;;;;;;;14.43;12.37;;;;;;;;;;5090386;28;20474;-79
2023/07/10 07:57:57;;;;;;;13.20;11.40;;;;;;;;;;5086720;28;20488;-78
2023/07/10 08:00:30;;;;;;;18.70;14.10;;;;;;;;;;5087394;28;20432;-79
2023/07/10 08:02:58;;;;;;;15.70;12.70;;;;;;;;;;5095798;28;20550;-80
2023/07/10 08:05:25;;;;;;;14.00;11.67;;;;;;;;;;5100148;28;20444;-79
2023/07/10 08:07:54;;;;;;;17.93;13.10;;;;;;;;;;5096523;28;20443;-78
2023/07/10 08:10:22;;;;;;;19.63;13.27;;;;;;;;;;5101467;28;20455;-79
2023/07/10 08:12:49;;;;;;;17.83;13.87;;;;;;;;;;5106887;28;20439;-77
2023/07/10 08:15:19;;;;;;;15.60;13.30;;;;;;;;;;5102424;28;20495;-77
2023/07/10 08:17:48;;;;;;;15.13;13.23;;;;;;;;;;5105987;28;20490;-79
2023/07/10 08:20:19;;;;;;;13.33;11.77;;;;;;;;;;5105077;28;20445;-78
2023/07/10 08:22:47;;;;;;;13.87;12.37;;;;;;;;;;5100911;28;20475;-78
2023/07/10 08:25:16;;;;;;;12.50;11.03;;;;;;;;;;5106179;28;20852;-79
2023/07/10 08:27:44;;;;;;;12.13;10.43;;;;;;;;;;5099015;28;20896;-79
2023/07/10 08:30:12;;;;;;;11.57;9.13;;;;;;;;;;5104768;28;20483;-78
2023/07/10 08:32:40;;;;;;;7.67;6.87;;;;;;;;;;5100873;28;20471;-79
2023/07/10 08:35:10;;;;;;;7.53;5.50;;;;;;;;;;5098451;28;20586;-78
2023/07/10 08:37:38;;;;;;;6.30;4.80;;;;;;;;;;5092639;28;20486;-80
2023/07/10 08:40:21;;;;;;;7.83;5.37;;;;;;;;;;5099344;28;20471;-80
2023/07/10 08:42:50;;;;;;;8.10;4.70;;;;;;;;;;5103065;28;20476;-78
2023/07/10 08:45:30;;;;;;;7.63;5.07;;;;;;;;;;5105404;28;20514;-79
2023/07/10 08:48:00;;;;;;;9.37;3.80;;;;;;;;;;5092585;28;20541;-78
2023/07/10 08:50:29;;;;;;;6.70;4.13;;;;;;;;;;5092966;28;20489;-79
2023/07/10 08:53:01;;;;;;;6.37;4.43;;;;;;;;;;5100864;28;20456;-79
2023/07/10 08:55:31;;;;;;;6.30;5.23;;;;;;;;;;5102578;28;20814;-78
2023/07/10 08:58:00;;;;;;;9.60;4.53;;;;;;;;;;5100601;28;20591;-77
2023/07/10 09:00:31;;;;;;;6.43;4.53;;;;;;;;;;5092075;28;20466;-77
2023/07/10 09:03:05;;;;;;;6.47;5.13;;;;;;;;;;5093503;28;20528;-77
2023/07/10 09:05:34;;;;;;;6.87;4.70;;;;;;;;;;5074513;28;20484;-78
2023/07/10 09:08:04;;;;;;;7.63;5.27;;;;;;;;;;5087151;28;20429;-77
2023/07/10 09:10:35;;;;;;;6.60;4.67;;;;;;;;;;5102013;28;20458;-78
2023/07/10 09:13:07;;;;;;;6.63;5.67;;;;;;;;;;5102892;28;20479;-79
2023/07/10 09:15:38;;;;;;;6.27;4.93;;;;;;;;;;5088903;28;20511;-78
2023/07/10 09:18:09;;;;;;;6.00;4.67;;;;;;;;;;5095455;28;20485;-79
2023/07/10 09:20:37;;;;;;;5.77;4.23;;;;;;;;;;5094240;28;20517;-79
2023/07/10 09:23:19;;;;;;;7.63;5.67;;;;;;;;;;5099889;28;20593;-79
2023/07/10 09:25:46;;;;;;;7.00;4.87;;;;;;;;;;5097011;28;20447;-79
2023/07/10 09:28:15;;;;;;;8.03;5.10;;;;;;;;;;5094959;28;20460;-78
2023/07/10 09:30:52;;;;;;;8.40;4.90;;;;;;;;;;5089547;28;20439;-77
2023/07/10 09:33:20;;;;;;;8.53;5.13;;;;;;;;;;5102102;28;20459;-80
2023/07/10 09:35:52;;;;;;;8.73;5.77;;;;;;;;;;5073555;28;20495;-78
2023/07/10 09:39:01;;;;;;;9.50;5.03;;;;;;;;;;5087822;28;20522;-79
2023/07/10 09:41:31;;;;;;;6.60;4.70;;;;;;;;;;5093602;28;20576;-78
2023/07/10 09:44:02;;;;;;;10.37;5.30;;;;;;;;;;5102699;28;20460;-78
2023/07/10 09:46:30;;;;;;;6.40;4.63;;;;;;;;;;5094937;28;20479;-78
2023/07/10 09:48:59;;;;;;;6.97;5.00;;;;;;;;;;5098814;28;20435;-78
2023/07/10 09:51:27;;;;;;;7.53;4.50;;;;;;;;;;5104372;28;20806;-79
2023/07/10 09:53:59;;;;;;;9.73;5.40;;;;;;;;;;5083479;28;20448;-78
2023/07/10 09:56:27;;;;;;;7.47;3.57;;;;;;;;;;5094608;28;20808;-78
2023/07/10 09:58:56;;;;;;;9.57;5.00;;;;;;;;;;5083213;28;20705;-78
2023/07/10 10:01:28;;;;;;;8.73;4.33;;;;;;;;;;5100967;28;20459;-77
2023/07/10 10:03:58;;;;;;;7.10;4.40;;;;;;;;;;5103518;28;20565;-78
2023/07/10 10:06:30;;;;;;;7.30;4.10;;;;;;;;;;5098956;28;20523;-78
2023/07/10 10:08:58;;;;;;;7.03;5.10;;;;;;;;;;5075449;28;20948;-78
2023/07/10 10:11:36;;;;;;;5.37;3.30;;;;;;;;;;5108651;28;20456;-80
2023/07/10 10:14:06;;;;;;;6.97;4.40;;;;;;;;;;5101224;28;20466;-78
2023/07/10 10:16:38;;;;;;;5.87;4.73;;;;;;;;;;5090628;28;20471;-78
2023/07/10 10:19:09;;;;;;;7.53;3.60;;;;;;;;;;5102878;28;20479;-77
2023/07/10 10:21:37;;;;;;;6.50;2.80;;;;;;;;;;5101904;28;20740;-78
2023/07/10 10:24:07;;;;;;;7.20;2.83;;;;;;;;;;5103030;28;20483;-78
2023/07/10 10:26:44;;;;;;;7.03;3.27;;;;;;;;;;5106876;28;20455;-79
2023/07/10 10:29:18;;;;;;;5.30;3.10;;;;;;;;;;5101830;28;20519;-79
2023/07/10 10:31:51;;;;;;;5.07;3.20;;;;;;;;;;5094725;28;20462;-77
2023/07/10 10:34:23;;;;;;;8.20;3.07;;;;;;;;;;5100520;28;20947;-78
2023/07/10 10:37:00;;;;;;;6.20;2.93;;;;;;;;;;5081357;28;20459;-77
2023/07/10 10:39:34;;;;;;;5.10;2.20;;;;;;;;;;5101496;28;20488;-78
2023/07/10 10:42:02;;;;;;;7.00;3.40;;;;;;;;;;5099144;28;20455;-78
2023/07/10 10:44:41;;;;;;;4.60;2.33;;;;;;;;;;5104496;28;20440;-78
2023/07/10 10:47:23;;;;;;;5.47;2.33;;;;;;;;;;5104050;28;20475;-78
2023/07/10 10:50:22;;;;;;;8.67;2.37;;;;;;;;;;5082373;28;20453;-77
2023/07/10 10:52:55;;;;;;;5.50;2.30;;;;;;;;;;5080930;28;20452;-78
2023/07/10 10:55:33;;;;;;;4.57;1.77;;;;;;;;;;5079415;28;20440;-78
2023/07/10 10:58:07;;;;;;;4.43;1.90;;;;;;;;;;5081769;28;20440;-78
2023/07/10 11:00:42;;;;;;;4.60;1.67;;;;;;;;;;5097121;28;20938;-80
2023/07/10 11:03:16;;;;;;;5.63;2.27;;;;;;;;;;5104395;28;20458;-78
2023/07/10 11:05:46;;;;;;;3.80;1.60;;;;;;;;;;5098386;28;20446;-78
2023/07/10 11:08:15;;;;;;;4.73;1.87;;;;;;;;;;5102230;28;20495;-82
2023/07/10 11:10:46;;;;;;;5.23;2.13;;;;;;;;;;5100780;28;20451;-79
2023/07/10 11:13:19;;;;;;;5.50;2.10;;;;;;;;;;5101219;28;20466;-78
2023/07/10 11:15:46;;;;;;;5.60;2.10;;;;;;;;;;5093511;28;20453;-79
2023/07/10 11:18:16;;;;;;;4.13;1.37;;;;;;;;;;5077199;28;20467;-79
2023/07/10 11:20:46;;;;;;;6.10;2.43;;;;;;;;;;5082351;28;20464;-79
2023/07/10 11:23:46;;;;;;;6.47;2.30;;;;;;;;;;5084690;28;20475;-80
2023/07/10 11:26:26;;;;;;;4.50;2.30;;;;;;;;;;5055361;28;20526;-78
2023/07/10 11:28:55;;;;;;;5.00;1.70;;;;;;;;;;5100029;28;20451;-80
2023/07/10 11:31:38;;;;;;;4.07;1.87;;;;;;;;;;5100172;28;20800;-78
2023/07/10 11:34:24;;;;;;;5.00;1.87;;;;;;;;;;5096549;28;20455;-78
2023/07/10 11:36:58;;;;;;;5.20;2.43;;;;;;;;;;5103926;28;20470;-78
2023/07/10 11:39:33;;;;;;;5.47;1.87;;;;;;;;;;5084296;28;20488;-78
2023/07/10 11:42:08;;;;;;;3.60;1.67;;;;;;;;;;5098605;28;20907;-78
2023/07/10 11:44:40;;;;;;;4.20;1.67;;;;;;;;;;5103030;28;20458;-78
2023/07/10 11:47:23;;;;;;;4.93;2.30;;;;;;;;;;5092180;28;20520;-77
2023/07/10 11:50:25;;;;;;;3.57;1.63;;;;;;;;;;5093478;28;20491;-78
2023/07/10 11:53:09;;;;;;;5.20;2.03;;;;;;;;;;5014696;28;20447;-76
2023/07/10 11:55:44;;;;;;;6.63;2.07;;;;;;;;;;5017877;28;20478;-77
2023/07/10 11:58:25;;;;;;;3.87;1.87;;;;;;;;;;5065562;28;20456;-78
2023/07/10 12:00:59;;;;;;;4.50;1.80;;;;;;;;;;5105615;28;20543;-78
2023/07/10 12:03:27;;;;;;;7.13;2.10;;;;;;;;;;5087799;28;20527;-79
2023/07/10 12:05:57;;;;;;;4.50;2.20;;;;;;;;;;5093435;28;20444;-78
2023/07/10 12:08:30;;;;;;;4.00;1.83;;;;;;;;;;5087633;28;20530;-79
2023/07/10 12:10:59;;;;;;;5.20;2.30;;;;;;;;;;5096558;28;20463;-78
2023/07/10 12:13:28;;;;;;;3.83;1.73;;;;;;;;;;5096163;28;20478;-80
2023/07/10 12:15:57;;;;;;;3.80;1.50;;;;;;;;;;5104877;28;20527;-79
2023/07/10 12:18:26;;;;;;;5.00;2.17;;;;;;;;;;5108032;28;20537;-79
2023/07/10 12:20:55;;;;;;;4.47;1.90;;;;;;;;;;5109183;28;20558;-76
2023/07/10 12:23:25;;;;;;;4.43;1.87;;;;;;;;;;5097101;28;20507;-79
2023/07/10 12:25:58;;;;;;;5.23;2.10;;;;;;;;;;5093321;28;20854;-80
2023/07/10 12:28:26;;;;;;;6.10;2.00;;;;;;;;;;5084230;28;20493;-79
2023/07/10 12:30:55;;;;;;;6.33;2.10;;;;;;;;;;5101703;28;20447;-82
2023/07/10 12:33:34;;;;;;;4.30;2.07;;;;;;;;;;5102622;28;20549;-79
2023/07/10 12:36:10;;;;;;;5.07;2.27;;;;;;;;;;5104274;28;21144;-80
2023/07/10 12:38:37;;;;;;;4.43;1.70;;;;;;;;;;5105925;28;20447;-80
2023/07/10 12:41:06;;;;;;;4.17;1.80;;;;;;;;;;5115879;28;20726;-80
2023/07/10 12:46:18;;;;;;;6.13;2.30;;;;;;;;;;5095055;28;20457;-79
2023/07/10 12:48:46;;;;;;;5.23;2.07;;;;;;;;;;5099527;28;20458;-79
2023/07/10 12:51:19;;;;;;;4.43;1.87;;;;;;;;;;5101474;28;20565;-77
2023/07/10 12:53:47;;;;;;;5.63;2.43;;;;;;;;;;5085986;28;20449;-77
2023/07/10 12:56:24;;;;;;;4.57;2.00;;;;;;;;;;5082155;28;20460;-81
2023/07/10 12:58:51;;;;;;;16.27;3.03;;;;;;;;;;5085320;28;20548;-78
2023/07/10 13:01:21;;;;;;;4.40;2.03;;;;;;;;;;5097356;28;20486;-78
2023/07/10 13:04:04;;;;;;;5.27;1.90;;;;;;;;;;5102065;28;20745;-78
2023/07/10 13:06:32;;;;;;;4.20;1.90;;;;;;;;;;5101290;28;20471;-78
2023/07/10 13:09:02;;;;;;;4.30;1.47;;;;;;;;;;5082977;28;20459;-79
2023/07/10 13:11:31;;;;;;;6.33;2.43;;;;;;;;;;5105532;28;20971;-79
2023/07/10 13:14:05;;;;;;;5.00;2.10;;;;;;;;;;5100981;28;20464;-78
2023/07/10 13:16:36;;;;;;;5.10;2.17;;;;;;;;;;5099962;28;20458;-77
2023/07/10 13:19:04;;;;;;;7.73;2.77;;;;;;;;;;5101463;28;20555;-79
2023/07/10 13:21:31;;;;;;;4.37;2.03;;;;;;;;;;5110983;28;20455;-77
2023/07/10 13:23:59;;;;;;;5.70;2.57;;;;;;;;;;5110364;28;20491;-77
2023/07/10 13:26:28;;;;;;;4.70;1.80;;;;;;;;;;5099183;28;20482;-77
2023/07/10 13:28:58;;;;;;;6.43;3.30;;;;;;;;;;5099686;28;20455;-78
2023/07/10 13:31:26;;;;;;;5.90;2.50;;;;;;;;;;5102569;28;20465;-78
2023/07/10 13:33:57;;;;;;;5.57;2.33;;;;;;;;;;5111882;28;20448;-78
2023/07/10 13:36:29;;;;;;;4.83;1.77;;;;;;;;;;5104359;28;20489;-79
2023/07/10 13:38:57;;;;;;;6.00;2.50;;;;;;;;;;5104284;28;20461;-79
2023/07/10 13:41:35;;;;;;;4.40;1.90;;;;;;;;;;5106321;28;20463;-78
2023/07/10 13:44:05;;;;;;;6.63;2.20;;;;;;;;;;5093368;28;20461;-79
2023/07/10 13:46:36;;;;;;;5.37;2.23;;;;;;;;;;5097749;28;20495;-80
2023/07/10 13:49:05;;;;;;;6.83;2.50;;;;;;;;;;5099714;28;20474;-78
2023/07/10 13:51:35;;;;;;;4.60;1.90;;;;;;;;;;5103538;28;20492;-79
2023/07/10 13:54:05;;;;;;;4.57;2.10;;;;;;;;;;5104605;28;20475;-77
2023/07/10 13:56:33;;;;;;;4.50;1.57;;;;;;;;;;5101820;28;20556;-80
2023/07/10 13:59:02;;;;;;;4.37;2.10;;;;;;;;;;5101466;28;20499;-79
2023/07/10 14:01:39;;;;;;;5.70;1.57;;;;;;;;;;5100516;28;20484;-79
2023/07/10 14:04:19;;;;;;;4.57;2.00;;;;;;;;;;5100478;28;20450;-80
2023/07/10 14:06:47;;;;;;;4.30;1.60;;;;;;;;;;5106602;28;20879;-78
2023/07/10 14:09:17;;;;;;;4.87;2.20;;;;;;;;;;5105155;28;20808;-79
2023/07/10 14:11:44;;;;;;;4.37;2.03;;;;;;;;;;5106428;28;20482;-79
2023/07/10 14:14:16;;;;;;;7.80;1.90;;;;;;;;;;5104750;28;20451;-78
2023/07/10 14:16:46;;;;;;;4.10;1.73;;;;;;;;;;5098690;28;20463;-78
2023/07/10 14:19:17;;;;;;;5.63;2.00;;;;;;;;;;5084374;28;20468;-79
2023/07/10 14:21:45;;;;;;;5.90;1.87;;;;;;;;;;5097959;28;20459;-80
2023/07/10 14:24:14;;;;;;;4.80;1.83;;;;;;;;;;5089897;28;20456;-78
2023/07/10 14:26:42;;;;;;;4.47;1.90;;;;;;;;;;5098937;28;20436;-78
2023/07/10 14:29:15;;;;;;;4.10;1.80;;;;;;;;;;5098257;28;20444;-79
2023/07/10 14:31:43;;;;;;;4.80;1.90;;;;;;;;;;5081780;28;20454;-79
2023/07/10 14:34:15;;;;;;;4.90;2.03;;;;;;;;;;5081797;28;20446;-77
2023/07/10 14:36:51;;;;;;;5.03;1.60;;;;;;;;;;5097557;28;20494;-78
2023/07/10 14:39:19;;;;;;;14.73;2.70;;;;;;;;;;5102336;28;20466;-80
2023/07/10 14:41:47;;;;;;;5.00;1.50;;;;;;;;;;5096563;28;20491;-79
2023/07/10 14:44:18;;;;;;;5.07;2.07;;;;;;;;;;5091374;28;20454;-78
2023/07/10 14:46:45;;;;;;;8.33;2.40;;;;;;;;;;5081520;28;20553;-79
2023/07/10 14:49:15;;;;;;;5.50;1.67;;;;;;;;;;5098585;28;20492;-81
2023/07/10 14:51:43;;;;;;;8.30;1.60;;;;;;;;;;5100162;28;20455;-81
2023/07/10 14:54:12;;;;;;;7.73;2.50;;;;;;;;;;5094940;28;20521;-78
2023/07/10 14:56:45;;;;;;;4.37;1.60;;;;;;;;;;5099240;28;20464;-79
2023/07/10 14:59:25;;;;;;;4.90;1.90;;;;;;;;;;5099779;28;20564;-78
2023/07/10 15:02:05;;;;;;;5.30;1.80;;;;;;;;;;5088193;28;20440;-80